Las Vegas, Nevada
Traffic Map
Current Weather Conditions
Las Vegas, Nevada
Few Clouds
Few Clouds
88°
Feels Like: 88°
Wind Chill: 88° Ceiling: Unl
Heat Index: 88° Visibility: 10mi
Dew Point: 31° Wind: 7mph
Humidity: 13% Direction: 220° (SW)
Pressure: 29.8in Gusts: 0mph
Raw Report DataKLAS 260556Z 22006KT 10SM FEW140 31/M01 A2980 RMK AO2 SLP060 T03111006 10378 20311 51007
Traffic Incident Summary
Active as of:
Severity:
Category:
InformationThere was an issue retrieving the traffic information for this location. Please try a different location or try again shortly.
Advertisements
Track Severe Weather on mobile